Time;durP1;ratioP1;P1;durP2;ratioP2;P2;SDS_P1;SDS_P2;PMS_P1;PMS_P2;Temp;Humidity;BMP_temperature;BMP_pressure;BME280_temperature;BME280_humidity;BME280_pressure;Samples;Min_cycle;Max_cycle;Signal;HPM_P1;HPM_P2
2021/04/21 00:01:19;;;;;;;;;;;;;;;21.44;30.74;97713.75;5088126;28;634;-87
2021/04/21 00:03:44;;;;;;;;;;;;;;;21.95;30.41;97711.72;5070895;28;1969;-87
2021/04/21 00:06:10;;;;;;;;;;;;;;;22.24;29.96;97711.59;5070973;28;1144;-87
2021/04/21 00:08:36;;;;;;;;;;;;;;;22.40;29.19;97715.53;5070793;28;891;-86
2021/04/21 00:11:01;;;;;;;;;;;;;;;21.89;29.85;97712.75;5071292;28;1296;-86
2021/04/21 00:13:27;;;;;;;;;;;;;;;21.79;30.13;97709.81;5087575;28;657;-87
2021/04/21 00:15:52;;;;;;;;;;;;;;;21.84;30.11;97716.94;5088121;28;703;-87
2021/04/21 00:18:18;;;;;;;;;;;;;;;21.67;30.43;97721.94;5087090;28;1281;-87
2021/04/21 00:20:44;;;;;;;;;;;;;;;21.50;30.54;97723.25;5087348;28;853;-86
2021/04/21 00:23:10;;;;;;;;;;;;;;;21.53;30.52;97725.19;5087620;28;1901;-87
2021/04/21 00:25:35;;;;;;;;;;;;;;;21.51;30.53;97724.88;5087238;28;992;-87
2021/04/21 00:28:04;;;;;;;;;;;;;;;21.52;30.44;97721.56;5087454;28;641;-87
2021/04/21 00:30:31;;;;;;;;;;;;;;;21.58;30.72;97728.25;5088279;28;778;-87
2021/04/21 00:32:56;;;;;;;;;;;;;;;21.64;30.59;97720.00;5087570;28;1171;-87
2021/04/21 00:35:25;;;;;;;;;;;;;;;21.49;30.67;97724.50;5086841;28;901;-86
2021/04/21 00:38:01;;;;;;;;;;;;;;;21.46;30.77;97725.44;5087408;28;870;-86
2021/04/21 00:40:30;;;;;;;;;;;;;;;21.52;30.46;97726.44;5086881;28;888;-87
2021/04/21 00:43:03;;;;;;;;;;;;;;;21.65;30.75;97727.22;5104162;28;1945;-87
2021/04/21 00:45:32;;;;;;;;;;;;;;;22.09;30.22;97721.81;5070539;28;1284;-87
2021/04/21 00:48:01;;;;;;;;;;;;;;;22.29;29.79;97722.38;5087185;28;733;-86
2021/04/21 00:50:28;;;;;;;;;;;;;;;22.03;29.77;97717.97;5086716;28;948;-87
2021/04/21 00:52:56;;;;;;;;;;;;;;;21.80;29.92;97717.03;5070567;28;1195;-87
2021/04/21 00:55:26;;;;;;;;;;;;;;;21.70;29.96;97723.84;5086853;28;1193;-87
2021/04/21 00:57:57;;;;;;;;;;;;;;;21.68;30.04;97723.50;5070405;28;1366;-87
2021/04/21 01:00:26;;;;;;;;;;;;;;;21.65;30.14;97721.56;5070498;28;1204;-86
2021/04/21 01:02:56;;;;;;;;;;;;;;;21.56;30.42;97725.09;5070824;28;1910;-87
2021/04/21 01:05:23;;;;;;;;;;;;;;;21.60;30.28;97722.13;5086083;28;1334;-86
2021/04/21 01:07:49;;;;;;;;;;;;;;;21.52;30.58;97717.94;5086614;28;963;-87
2021/04/21 01:10:15;;;;;;;;;;;;;;;21.60;30.58;97730.63;5070086;28;1282;-87
2021/04/21 01:12:46;;;;;;;;;;;;;;;21.45;30.60;97721.81;5087156;28;1470;-86
2021/04/21 01:15:13;;;;;;;;;;;;;;;21.47;30.42;97721.34;5069690;28;1339;-86
2021/04/21 01:17:39;;;;;;;;;;;;;;;21.57;30.83;97725.88;5085994;28;887;-87
2021/04/21 01:20:06;;;;;;;;;;;;;;;21.44;30.75;97723.03;5085597;28;852;-87
2021/04/21 01:22:42;;;;;;;;;;;;;;;21.52;30.64;97726.44;5086132;28;1977;-85
2021/04/21 01:25:17;;;;;;;;;;;;;;;21.52;30.71;97729.28;5086380;28;1170;-86
2021/04/21 01:27:42;;;;;;;;;;;;;;;21.53;30.83;97723.16;5086311;28;1264;-87
2021/04/21 01:30:08;;;;;;;;;;;;;;;21.49;30.92;97724.50;5086323;28;1161;-86
2021/04/21 01:32:34;;;;;;;;;;;;;;;21.41;30.97;97721.13;5085961;28;1171;-86
2021/04/21 01:34:59;;;;;;;;;;;;;;;21.51;30.67;97722.03;5086213;28;871;-87
2021/04/21 01:37:25;;;;;;;;;;;;;;;21.95;30.51;97711.72;5086396;28;939;-86
2021/04/21 01:39:55;;;;;;;;;;;;;;;22.32;29.92;97718.59;5086496;28;1257;-86
2021/04/21 01:42:21;;;;;;;;;;;;;;;22.49;29.22;97718.47;5103829;28;730;-87
2021/04/21 01:44:46;;;;;;;;;;;;;;;21.93;29.66;97714.22;5086299;28;1944;-87
2021/04/21 01:47:15;;;;;;;;;;;;;;;21.83;30.04;97721.81;5085929;28;908;-86
2021/04/21 01:49:59;;;;;;;;;;;;;;;21.69;29.91;97716.59;5086414;28;942;-87
2021/04/21 01:52:40;;;;;;;;;;;;;;;21.68;30.15;97734.84;5086248;28;892;-86
2021/04/21 01:55:14;;;;;;;;;;;;;;;21.61;30.41;97732.25;5086515;28;1176;-86
2021/04/21 01:57:43;;;;;;;;;;;;;;;21.49;30.75;97735.81;5103384;28;801;-87
2021/04/21 02:00:10;;;;;;;;;;;;;;;21.43;30.89;97731.97;5087073;28;702;-87
2021/04/21 02:02:39;;;;;;;;;;;;;;;21.50;30.47;97732.56;5086613;28;1971;-87
2021/04/21 02:05:18;;;;;;;;;;;;;;;21.45;30.90;97723.81;5085917;28;1303;-87
2021/04/21 02:07:45;;;;;;;;;;;;;;;21.49;30.76;97730.97;5085970;28;943;-85
2021/04/21 02:10:26;;;;;;;;;;;;;;;21.45;30.82;97724.63;5103060;28;1185;-86
2021/04/21 02:13:10;;;;;;;;;;;;;;;21.47;30.58;97732.66;5087289;28;677;-87
2021/04/21 02:15:44;;;;;;;;;;;;;;;21.40;31.02;97728.03;5086381;28;915;-87
2021/04/21 02:18:16;;;;;;;;;;;;;;;22.04;30.00;97719.53;5103664;28;1204;-87
2021/04/21 02:20:43;;;;;;;;;;;;;;;22.23;29.86;97723.41;5086778;28;904;-87
2021/04/21 02:23:24;;;;;;;;;;;;;;;22.26;29.31;97720.44;5069272;28;1950;-86
2021/04/21 02:25:53;;;;;;;;;;;;;;;21.75;29.89;97730.97;5070180;28;1184;-87
2021/04/21 02:28:28;;;;;;;;;;;;;;;21.54;30.08;97729.59;5086951;28;602;-87
2021/04/21 02:30:55;;;;;;;;;;;;;;;21.61;30.37;97715.25;5106164;28;1157;-86
2021/04/21 02:33:21;;;;;;;;;;;;;;;21.66;30.28;97728.84;5090180;28;1124;-86
2021/04/21 02:35:53;;;;;;;;;;;;;;;21.54;30.50;97726.78;5089487;28;1319;-87
2021/04/21 02:38:28;;;;;;;;;;;;;;;21.54;30.53;97732.44;5073008;28;1174;-87
2021/04/21 02:41:07;;;;;;;;;;;;;;;21.55;30.35;97728.34;5090488;28;677;-87
2021/04/21 02:43:46;;;;;;;;;;;;;;;21.51;30.53;97724.88;5089673;28;1985;-87
2021/04/21 02:46:17;;;;;;;;;;;;;;;21.44;30.50;97725.06;5089689;28;725;-87
2021/04/21 02:48:54;;;;;;;;;;;;;;;21.47;30.76;97738.34;5090129;28;626;-87
2021/04/21 02:51:21;;;;;;;;;;;;;;;21.41;30.64;97735.25;5089224;28;877;-87
2021/04/21 02:53:59;;;;;;;;;;;;;;;21.57;30.27;97737.22;5089209;28;1251;-86
2021/04/21 02:56:28;;;;;;;;;;;;;;;21.58;30.64;97747.28;5089186;28;1259;-87
2021/04/21 02:58:54;;;;;;;;;;;;;;;22.23;29.48;97741.19;5089293;28;824;-86
2021/04/21 03:01:23;;;;;;;;;;;;;;;22.45;29.12;97743.31;5090034;28;650;-87
2021/04/21 03:03:57;;;;;;;;;;;;;;;22.04;29.60;97733.72;5071406;28;1980;-85
2021/04/21 03:06:27;;;;;;;;;;;;;;;21.72;29.85;97754.56;5088849;28;866;-87
2021/04/21 03:08:56;;;;;;;;;;;;;;;21.67;29.90;97747.41;5087918;28;882;-87
2021/04/21 03:11:23;;;;;;;;;;;;;;;21.62;30.21;97756.47;5088566;28;948;-87
2021/04/21 03:13:52;;;;;;;;;;;;;;;21.59;30.27;97752.50;5088455;28;1197;-87
2021/04/21 03:16:19;;;;;;;;;;;;;;;21.56;30.24;97758.28;5088797;28;759;-87
2021/04/21 03:18:44;;;;;;;;;;;;;;;21.55;30.38;97751.81;5088144;28;792;-87
2021/04/21 03:21:12;;;;;;;;;;;;;;;21.49;30.59;97758.47;5071206;28;940;-87
2021/04/21 03:23:39;;;;;;;;;;;;;;;21.59;30.28;97763.81;5087735;28;1980;-87
2021/04/21 03:26:04;;;;;;;;;;;;;;;21.59;30.24;97769.47;5088383;28;813;-87
2021/04/21 03:28:30;;;;;;;;;;;;;;;21.55;30.30;97768.81;5088569;28;638;-86
2021/04/21 03:30:59;;;;;;;;;;;;;;;21.50;30.58;97766.53;5088339;28;786;-87
2021/04/21 03:33:44;;;;;;;;;;;;;;;21.51;30.63;97773.78;5071382;28;1258;-87
2021/04/21 03:36:10;;;;;;;;;;;;;;;21.41;30.55;97780.56;5088156;28;1165;-87
2021/04/21 03:38:35;;;;;;;;;;;;;;;21.44;30.62;97782.47;5088682;28;867;-87
2021/04/21 03:41:01;;;;;;;;;;;;;;;21.64;29.99;97792.81;5087835;28;800;-87
2021/04/21 03:43:27;;;;;;;;;;;;;;;21.60;30.22;97792.91;5071713;28;1939;-86
2021/04/21 03:45:52;;;;;;;;;;;;;;;21.94;30.06;97805.66;5088339;28;700;-87
2021/04/21 03:48:18;;;;;;;;;;;;;;;22.26;29.58;97799.78;5089069;28;686;-87
2021/04/21 03:50:44;;;;;;;;;;;;;;;22.48;29.10;97804.75;5087822;28;1066;-87
2021/04/21 03:53:09;;;;;;;;;;;;;;;21.95;29.78;97801.56;5071668;28;1120;-87
2021/04/21 03:55:35;;;;;;;;;;;;;;;21.64;29.98;97804.16;5072235;28;1114;-87
2021/04/21 03:58:05;;;;;;;;;;;;;;;21.64;29.65;97804.94;5087741;28;604;-87
2021/04/21 04:00:31;;;;;;;;;;;;;;;21.57;30.02;97803.13;5070860;28;1203;-87
2021/04/21 04:02:57;;;;;;;;;;;;;;;21.55;30.28;97807.63;5070899;28;1949;-87
2021/04/21 04:05:24;;;;;;;;;;;;;;;21.50;30.54;97811.00;5069292;28;1320;-86
2021/04/21 04:07:50;;;;;;;;;;;;;;;21.45;30.62;97809.56;5063236;28;1304;-87
2021/04/21 04:10:16;;;;;;;;;;;;;;;21.48;30.46;97810.69;5063503;28;1045;-87
2021/04/21 04:12:42;;;;;;;;;;;;;;;21.44;30.20;97813.59;5046795;28;850;-86
2021/04/21 04:15:08;;;;;;;;;;;;;;;21.45;30.34;97808.72;5047361;28;801;-86
2021/04/21 04:17:34;;;;;;;;;;;;;;;21.50;30.43;97816.66;5064142;28;1309;-87
2021/04/21 04:19:59;;;;;;;;;;;;;;;21.46;30.11;97816.00;5046647;28;1448;-87
2021/04/21 04:22:25;;;;;;;;;;;;;;;21.77;30.30;97825.59;5030963;28;1182;-87
2021/04/21 04:24:52;;;;;;;;;;;;;;;22.05;29.74;97823.13;5030675;28;1972;-87
2021/04/21 04:27:19;;;;;;;;;;;;;;;22.33;28.98;97821.47;5030815;28;1146;-87
2021/04/21 04:29:44;;;;;;;;;;;;;;;22.09;29.14;97824.59;5046839;28;1310;-86
2021/04/21 04:32:13;;;;;;;;;;;;;;;21.84;29.13;97822.53;5046952;28;919;-86
2021/04/21 04:34:43;;;;;;;;;;;;;;;21.50;29.77;97823.16;5052085;28;1297;-86
2021/04/21 04:37:10;;;;;;;;;;;;;;;21.48;29.50;97836.94;5054194;28;1427;-87
2021/04/21 04:39:35;;;;;;;;;;;;;;;21.53;29.88;97832.78;5062547;28;1541;-87
2021/04/21 04:42:01;;;;;;;;;;;;;;;21.96;30.22;97842.81;5045250;28;1182;-86
2021/04/21 04:44:26;;;;;;;;;;;;;;;22.35;29.09;97836.75;5047113;28;1906;-87
2021/04/21 04:46:52;;;;;;;;;;;;;;;22.50;29.05;97834.25;5031112;28;1205;-87
2021/04/21 04:49:18;;;;;;;;;;;;;;;22.51;28.64;97832.22;5030009;28;1159;-86
2021/04/21 04:51:44;;;;;;;;;;;;;;;21.83;29.73;97834.31;5039205;28;1321;-87
2021/04/21 04:54:10;;;;;;;;;;;;;;;21.73;29.85;97841.09;5066948;28;1020;-87
2021/04/21 04:56:35;;;;;;;;;;;;;;;21.63;29.71;97837.34;5050611;28;1236;-87
2021/04/21 04:59:05;;;;;;;;;;;;;;;21.71;29.55;97840.72;5046771;28;1369;-86
2021/04/21 05:01:34;;;;;;;;;;;;;;;21.54;30.05;97840.00;5047613;28;762;-87
2021/04/21 05:04:00;;;;;;;;;;;;;;;21.51;30.12;97849.44;5046715;28;1959;-87
2021/04/21 05:06:30;;;;;;;;;;;;;;;21.42;30.04;97849.28;5046794;28;1348;-86
2021/04/21 05:08:55;;;;;;;;;;;;;;;21.50;30.01;97844.97;5051335;28;1320;-86
2021/04/21 05:11:21;;;;;;;;;;;;;;;21.45;30.12;97845.53;5050836;28;1190;-87
2021/04/21 05:13:47;;;;;;;;;;;;;;;21.47;30.12;97851.56;5062945;28;1489;-87
2021/04/21 05:16:28;;;;;;;;;;;;;;;21.60;30.17;97849.53;5050094;28;1263;-87
2021/04/21 05:18:54;;;;;;;;;;;;;;;22.08;29.50;97856.22;5067644;28;854;-87
2021/04/21 05:21:25;;;;;;;;;;;;;;;22.41;29.04;97861.69;5067552;28;829;-87
2021/04/21 05:24:00;;;;;;;;;;;;;;;21.92;29.57;97864.81;5051719;28;1950;-87
2021/04/21 05:26:44;;;;;;;;;;;;;;;21.63;29.93;97864.84;5047708;28;681;-86
2021/04/21 05:29:24;;;;;;;;;;;;;;;21.45;30.11;97860.50;5074942;28;1241;-84
2021/04/21 05:31:50;;;;;;;;;;;;;;;21.48;30.04;97859.59;5063205;28;1182;-85
2021/04/21 05:34:25;;;;;;;;;;;;;;;21.61;29.92;97861.69;5063894;28;1249;-86
2021/04/21 05:37:05;;;;;;;;;;;;;;;21.67;29.91;97866.34;5065817;28;1178;-87
2021/04/21 05:39:37;;;;;;;;;;;;;;;21.58;30.25;97869.81;5067849;28;634;-86
2021/04/21 05:42:22;;;;;;;;;;;;;;;21.90;30.42;97867.28;5067110;28;821;-86
2021/04/21 05:44:54;;;;;;;;;;;;;;;22.21;29.79;97862.72;5067068;28;1913;-87
2021/04/21 05:47:27;;;;;;;;;;;;;;;22.38;28.91;97873.94;5067207;28;873;-87
2021/04/21 05:50:12;;;;;;;;;;;;;;;21.78;30.10;97878.16;5066623;28;885;-88
2021/04/21 05:52:40;;;;;;;;;;;;;;;21.64;30.32;97883.44;5066775;28;1183;-87
2021/04/21 05:55:12;;;;;;;;;;;;;;;21.62;30.29;97878.22;5067473;28;1351;-87
2021/04/21 05:57:38;;;;;;;;;;;;;;;21.53;30.36;97878.06;5067031;28;1335;-87
2021/04/21 06:00:22;;;;;;;;;;;;;;;21.61;30.37;97879.47;5066163;28;1269;-87
2021/04/21 06:02:47;;;;;;;;;;;;;;;21.68;30.33;97884.91;5066429;28;1902;-87
2021/04/21 06:05:14;;;;;;;;;;;;;;;21.52;30.67;97882.16;5070043;28;936;-87
2021/04/21 06:07:40;;;;;;;;;;;;;;;21.49;30.44;97883.03;5069988;28;1372;-86
2021/04/21 06:10:23;;;;;;;;;;;;;;;21.82;30.62;97883.72;5064183;28;1336;-87
2021/04/21 06:12:52;;;;;;;;;;;;;;;22.33;29.34;97878.94;5018798;28;1373;-87
2021/04/21 06:15:21;;;;;;;;;;;;;;;22.36;29.03;97889.38;5033683;28;1151;-86
2021/04/21 06:17:46;;;;;;;;;;;;;;;21.95;29.66;97897.91;5063479;28;1419;-86
2021/04/21 06:20:15;;;;;;;;;;;;;;;21.68;30.03;97887.75;5069745;28;1372;-87
2021/04/21 06:22:41;;;;;;;;;;;;;;;21.70;30.10;97893.75;5070455;28;1934;-87
2021/04/21 06:25:07;;;;;;;;;;;;;;;21.70;30.06;97893.75;5070644;28;902;-87
2021/04/21 06:27:33;;;;;;;;;;;;;;;21.57;30.25;97901.41;5070803;28;623;-87
2021/04/21 06:30:03;;;;;;;;;;;;;;;21.55;30.26;97901.88;5070033;28;1402;-87
2021/04/21 06:32:28;;;;;;;;;;;;;;;21.46;30.39;97889.59;5070506;28;1154;-87
2021/04/21 06:35:23;;;;;;;;;;;;;;;21.58;30.21;97900.97;5070863;28;964;-87
2021/04/21 06:37:49;;;;;;;;;;;;;;;21.51;30.19;97898.34;5056914;28;1429;-87
2021/04/21 06:40:15;;;;;;;;;;;;;;;21.59;30.23;97898.91;5070177;28;1336;-87
2021/04/21 06:42:40;;;;;;;;;;;;;;;22.06;29.88;97904.03;5069475;28;1979;-86
2021/04/21 06:45:06;;;;;;;;;;;;;;;22.39;29.18;97907.53;5053161;28;1447;-86
2021/04/21 06:47:32;;;;;;;;;;;;;;;22.36;29.29;97909.22;5050641;28;1349;-87
2021/04/21 06:50:07;;;;;;;;;;;;;;;21.92;29.83;97910.16;5050294;28;1138;-86
2021/04/21 06:52:33;;;;;;;;;;;;;;;21.70;30.05;97916.41;5049912;28;923;-86
2021/04/21 06:55:03;;;;;;;;;;;;;;;21.63;30.32;97913.00;5050342;28;1330;-87
2021/04/21 06:57:29;;;;;;;;;;;;;;;21.62;30.30;97915.03;5052541;28;1339;-87
2021/04/21 07:00:02;;;;;;;;;;;;;;;21.72;30.03;97919.59;5053455;28;1316;-86
2021/04/21 07:02:36;;;;;;;;;;;;;;;21.66;30.30;97921.41;5053117;28;1934;-87
2021/04/21 07:05:02;;;;;;;;;;;;;;;21.56;30.14;97916.81;5068975;28;865;-87
2021/04/21 07:07:28;;;;;;;;;;;;;;;21.56;30.15;97905.50;5069506;28;1399;-86
2021/04/21 07:09:53;;;;;;;;;;;;;;;21.63;30.33;97922.28;5052648;28;1274;-87
2021/04/21 07:12:19;;;;;;;;;;;;;;;21.58;30.22;97914.31;5069652;28;702;-87
2021/04/21 07:14:44;;;;;;;;;;;;;;;21.44;30.62;97924.00;5052640;28;1342;-86
2021/04/21 07:17:10;;;;;;;;;;;;;;;21.42;30.60;97923.66;5052057;28;1400;-87
2021/04/21 07:19:35;;;;;;;;;;;;;;;21.51;30.21;97923.03;5075954;28;1475;-87
2021/04/21 07:22:01;;;;;;;;;;;;;;;21.54;30.49;97925.75;5069002;28;897;-87
2021/04/21 07:24:27;;;;;;;;;;;;;;;21.46;30.36;97930.03;5052345;28;1879;-87
2021/04/21 07:26:53;;;;;;;;;;;;;;;21.72;30.61;97936.59;5052619;28;1307;-87
2021/04/21 07:29:22;;;;;;;;;;;;;;;22.12;29.67;97936.25;5052648;28;1306;-86
2021/04/21 07:31:48;;;;;;;;;;;;;;;22.31;29.27;97937.31;5052662;28;1300;-87
2021/04/21 07:34:13;;;;;;;;;;;;;;;21.94;29.61;97941.63;5068814;28;1443;-87
2021/04/21 07:36:46;;;;;;;;;;;;;;;21.90;29.77;97950.22;5068385;28;830;-87
2021/04/21 07:39:11;;;;;;;;;;;;;;;21.69;29.83;97948.78;5068474;28;837;-86
2021/04/21 07:41:37;;;;;;;;;;;;;;;21.66;30.16;97944.03;5051964;28;1211;-87
2021/04/21 07:44:03;;;;;;;;;;;;;;;21.64;30.21;97957.84;5068368;28;1872;-86
2021/04/21 07:46:28;;;;;;;;;;;;;;;21.51;30.43;97946.47;5065213;28;1371;-86
2021/04/21 07:48:54;;;;;;;;;;;;;;;21.51;30.14;97951.34;5047800;28;909;-87
2021/04/21 07:51:29;;;;;;;;;;;;;;;21.46;30.48;97949.03;5047451;28;906;-87
2021/04/21 07:53:54;;;;;;;;;;;;;;;21.45;30.54;97948.25;5083786;28;1256;-87
2021/04/21 07:56:20;;;;;;;;;;;;;;;21.48;30.64;97950.19;5051836;28;1435;-87
2021/04/21 07:58:46;;;;;;;;;;;;;;;21.55;30.42;97960.50;5068506;28;1272;-87
2021/04/21 08:01:12;;;;;;;;;;;;;;;21.43;30.37;97959.22;5051354;28;1272;-87
2021/04/21 08:03:38;;;;;;;;;;;;;;;21.57;30.63;97956.00;5066959;28;1906;-86
2021/04/21 08:06:03;;;;;;;;;;;;;;;22.17;29.80;97960.41;5064296;28;1387;-87
2021/04/21 08:08:29;;;;;;;;;;;;;;;22.40;29.36;97960.13;5047877;28;969;-87
2021/04/21 08:10:55;;;;;;;;;;;;;;;22.05;29.72;97967.63;5047999;28;1161;-87
2021/04/21 08:13:39;;;;;;;;;;;;;;;21.90;29.68;97963.59;5047794;28;662;-87
2021/04/21 08:16:05;;;;;;;;;;;;;;;21.65;30.08;97970.75;5067423;28;1380;-87
2021/04/21 08:18:31;;;;;;;;;;;;;;;21.64;30.06;97972.00;5050581;28;1181;-87
2021/04/21 08:20:57;;;;;;;;;;;;;;;21.62;29.93;97971.66;5050601;28;1170;-87
2021/04/21 08:23:23;;;;;;;;;;;;;;;21.46;30.22;97974.53;5051402;28;1976;-86
2021/04/21 08:25:49;;;;;;;;;;;;;;;21.90;30.22;97969.28;5050655;28;1321;-87
2021/04/21 08:28:14;;;;;;;;;;;;;;;22.18;29.67;97974.16;5050089;28;1299;-87
2021/04/21 08:30:51;;;;;;;;;;;;;;;22.18;29.18;97977.00;5067250;28;677;-86
2021/04/21 08:33:16;;;;;;;;;;;;;;;21.78;29.99;97980.09;5067070;28;1007;-87
2021/04/21 08:35:43;;;;;;;;;;;;;;;21.61;29.88;97964.41;5067397;28;1419;-87
2021/04/21 08:38:08;;;;;;;;;;;;;;;21.66;30.07;97978.03;5067685;28;1461;-87
2021/04/21 08:40:38;;;;;;;;;;;;;;;21.54;30.09;97973.06;5067333;28;682;-87
2021/04/21 08:43:04;;;;;;;;;;;;;;;21.55;30.07;97963.34;5068113;28;1910;-86
2021/04/21 08:45:29;;;;;;;;;;;;;;;21.64;30.19;97963.50;5066259;28;1403;-87
2021/04/21 08:47:55;;;;;;;;;;;;;;;21.55;30.15;97966.16;5066792;28;1411;-87
2021/04/21 08:50:20;;;;;;;;;;;;;;;21.58;30.13;97968.91;5050851;28;1207;-87
2021/04/21 08:52:55;;;;;;;;;;;;;;;21.62;30.26;97977.31;5067369;28;1364;-87
2021/04/21 08:55:21;;;;;;;;;;;;;;;22.10;29.64;97972.72;5067530;28;662;-86
2021/04/21 08:57:47;;;;;;;;;;;;;;;22.44;29.10;97977.03;5067156;28;638;-88
2021/04/21 09:00:16;;;;;;;;;;;;;;;22.07;29.47;97982.13;5067802;28;857;-87
2021/04/21 09:02:42;;;;;;;;;;;;;;;21.67;30.06;97979.59;5066749;28;1906;-87
2021/04/21 09:05:08;;;;;;;;;;;;;;;21.64;30.14;97972.00;5067590;28;967;-87
2021/04/21 09:07:36;;;;;;;;;;;;;;;21.51;30.24;97969.13;5050516;28;1191;-87
2021/04/21 09:10:01;;;;;;;;;;;;;;;21.53;29.90;97975.13;5067824;28;1209;-87
2021/04/21 09:12:27;;;;;;;;;;;;;;;21.61;29.93;97970.06;5051072;28;1297;-87
2021/04/21 09:14:52;;;;;;;;;;;;;;;21.61;29.80;97967.25;5051460;28;1396;-86
2021/04/21 09:17:20;;;;;;;;;;;;;;;19.72;30.09;97692.09;5067638;28;976;-88
2021/04/21 09:19:46;;;;;;;;;;;;;;;21.45;29.99;97956.75;5034137;28;1330;-87
2021/04/21 09:22:11;;;;;;;;;;;;;;;21.50;29.89;97969.53;5050938;28;1283;-86
2021/04/21 09:24:38;;;;;;;;;;;;;;;21.57;29.66;97969.38;5066647;28;1883;-87
2021/04/21 09:27:23;;;;;;;;;;;;;;;22.05;29.36;97968.41;5067373;28;798;-87
2021/04/21 09:29:49;;;;;;;;;;;;;;;22.34;29.03;97968.41;5067693;28;1497;-88
2021/04/21 09:32:14;;;;;;;;;;;;;;;22.08;29.10;97952.56;5046498;28;1203;-87
2021/04/21 09:34:44;;;;;;;;;;;;;;;21.82;29.78;97963.81;5047780;28;907;-87
2021/04/21 09:37:25;;;;;;;;;;;;;;;21.77;29.47;97949.41;5030673;28;1234;-86
2021/04/21 09:39:58;;;;;;;;;;;;;;;21.61;29.87;97961.59;5033959;28;1193;-87
2021/04/21 09:42:27;;;;;;;;;;;;;;;21.54;29.83;97958.91;5068029;28;1388;-87
2021/04/21 09:44:53;;;;;;;;;;;;;;;21.36;30.16;97944.47;5051642;28;1985;-85
2021/04/21 09:47:20;;;;;;;;;;;;;;;21.55;30.35;97961.34;5034141;28;1311;-86
2021/04/21 09:49:45;;;;;;;;;;;;;;;22.03;29.69;97967.28;5051025;28;890;-87
2021/04/21 09:52:11;;;;;;;;;;;;;;;22.29;29.02;97963.28;5063896;28;1341;-87
2021/04/21 09:54:37;;;;;;;;;;;;;;;22.03;29.32;97961.63;5070810;28;1332;-87
2021/04/21 09:57:09;;;;;;;;;;;;;;;21.78;29.53;97951.78;5070654;28;975;-87
2021/04/21 09:59:35;;;;;;;;;;;;;;;21.55;30.04;97949.19;5072016;28;704;-87
2021/04/21 10:02:00;;;;;;;;;;;;;;;21.64;29.64;97955.00;5053695;28;1269;-87
2021/04/21 10:04:26;;;;;;;;;;;;;;;21.51;30.18;97954.16;5070489;28;1906;-86
2021/04/21 10:06:53;;;;;;;;;;;;;;;21.53;29.99;97957.34;5070240;28;974;-87
2021/04/21 10:09:37;;;;;;;;;;;;;;;21.45;30.07;97950.25;5053965;28;1307;-86
2021/04/21 10:12:20;;;;;;;;;;;;;;;21.72;29.63;97925.25;5070008;28;1354;-87
2021/04/21 10:14:46;;;;;;;;;;;;;;;22.23;29.24;97944.47;5050191;28;1172;-87
2021/04/21 10:17:12;;;;;;;;;;;;;;;22.50;28.93;97944.84;5034143;28;980;-87
2021/04/21 10:19:39;;;;;;;;;;;;;;;22.05;29.39;97942.13;5050624;28;1271;-87
2021/04/21 10:22:04;;;;;;;;;;;;;;;21.81;29.46;97938.75;5050632;28;1338;-87
2021/04/21 10:24:30;;;;;;;;;;;;;;;21.56;29.73;97947.97;5063977;28;1917;-87
2021/04/21 10:26:55;;;;;;;;;;;;;;;21.60;29.88;97945.81;5034424;28;1165;-88
2021/04/21 10:29:21;;;;;;;;;;;;;;;21.55;29.58;97937.84;5050494;28;852;-87
2021/04/21 10:31:47;;;;;;;;;;;;;;;21.46;29.85;97937.72;5050286;28;1151;-87
2021/04/21 10:34:13;;;;;;;;;;;;;;;21.44;30.16;97934.53;5076677;28;1387;-87
2021/04/21 10:36:41;;;;;;;;;;;;;;;21.45;30.16;97933.28;5053556;28;1367;-87
2021/04/21 10:39:06;;;;;;;;;;;;;;;21.57;29.60;97929.72;5070326;28;773;-87
2021/04/21 10:41:35;;;;;;;;;;;;;;;21.58;29.87;97932.09;5070235;28;694;-87
2021/04/21 10:44:07;;;;;;;;;;;;;;;21.94;29.62;97938.81;5054356;28;1988;-88
2021/04/21 10:46:53;;;;;;;;;;;;;;;22.29;29.23;97937.00;5070311;28;1018;-87
2021/04/21 10:49:38;;;;;;;;;;;;;;;22.08;29.06;97932.72;5070821;28;939;-87
2021/04/21 10:52:11;;;;;;;;;;;;;;;21.84;29.74;97944.31;5053280;28;1147;-87
2021/04/21 10:54:36;;;;;;;;;;;;;;;21.61;29.87;97933.25;5053662;28;1386;-88
2021/04/21 10:57:37;;;;;;;;;;;;;;;21.60;29.63;97931.66;5053266;28;1345;-87
2021/04/21 11:00:09;;;;;;;;;;;;;;;21.39;30.01;97927.38;5009910;28;1274;-87
2021/04/21 11:02:41;;;;;;;;;;;;;;;21.47;30.17;97930.81;5060539;28;911;-87
2021/04/21 11:05:08;;;;;;;;;;;;;;;21.40;30.25;97928.97;5068848;28;1934;-87
2021/04/21 11:07:37;;;;;;;;;;;;;;;21.47;29.81;97925.16;5052777;28;1431;-87
2021/04/21 11:10:03;;;;;;;;;;;;;;;21.46;29.80;97934.91;5069602;28;642;-87
2021/04/21 11:12:48;;;;;;;;;;;;;;;21.57;30.13;97926.91;5052528;28;822;-87
2021/04/21 11:15:14;;;;;;;;;;;;;;;22.08;29.30;97924.22;5069634;28;1229;-87
2021/04/21 11:17:58;;;;;;;;;;;;;;;22.40;28.61;97931.00;5052462;28;1293;-88
2021/04/21 11:20:42;;;;;;;;;;;;;;;21.87;29.49;97922.03;5069755;28;1357;-87
2021/04/21 11:23:28;;;;;;;;;;;;;;;21.72;29.50;97930.94;5070119;28;1883;-88
2021/04/21 11:25:53;;;;;;;;;;;;;;;21.66;29.39;97924.22;5069166;28;1292;-87
2021/04/21 11:28:38;;;;;;;;;;;;;;;21.56;29.55;97933.81;5038536;28;1473;-87
2021/04/21 11:31:04;;;;;;;;;;;;;;;21.46;29.80;97924.38;5052221;28;1369;-87
2021/04/21 11:34:02;;;;;;;;;;;;;;;21.58;29.81;97925.66;5069163;28;1120;-87
2021/04/21 11:36:34;;;;;;;;;;;;;;;22.20;28.98;97925.53;5026266;28;1090;-87
2021/04/21 11:39:00;;;;;;;;;;;;;;;22.44;28.34;97928.84;5066250;28;1336;-87
2021/04/21 11:41:26;;;;;;;;;;;;;;;22.04;28.72;97920.69;5053032;28;1189;-87
2021/04/21 11:43:52;;;;;;;;;;;;;;;21.75;29.41;97924.34;5053248;28;1973;-87
2021/04/21 11:46:52;;;;;;;;;;;;;;;21.64;29.32;97929.53;5052669;28;1162;-87
2021/04/21 11:49:44;;;;;;;;;;;;;;;21.41;29.69;97922.06;5052254;28;1456;-87
2021/04/21 11:52:10;;;;;;;;;;;;;;;21.45;29.93;97927.63;5046397;28;1094;-86
2021/04/21 11:54:38;;;;;;;;;;;;;;;21.55;29.75;97920.88;5052713;28;1364;-87
2021/04/21 11:57:04;;;;;;;;;;;;;;;21.53;29.54;97915.66;5068600;28;670;-87
2021/04/21 11:59:29;;;;;;;;;;;;;;;21.64;29.43;97921.03;5068735;28;1387;-87
2021/04/21 12:01:54;;;;;;;;;;;;;;;22.21;29.11;97913.72;5048160;28;1348;-87
2021/04/21 12:04:20;;;;;;;;;;;;;;;22.36;28.43;97917.72;5049361;28;1910;-87
2021/04/21 12:06:45;;;;;;;;;;;;;;;22.10;28.69;97918.91;5032646;28;1185;-88
2021/04/21 12:09:13;;;;;;;;;;;;;;;21.72;29.49;97913.94;5052281;28;1628;-87
2021/04/21 12:11:38;;;;;;;;;;;;;;;21.65;29.51;97919.00;5068661;28;682;-87
2021/04/21 12:14:04;;;;;;;;;;;;;;;21.68;29.46;97913.22;5052577;28;1208;-87
2021/04/21 12:16:30;;;;;;;;;;;;;;;21.54;29.76;97913.63;5068565;28;1219;-87
2021/04/21 12:18:57;;;;;;;;;;;;;;;21.54;29.61;97916.47;5051398;28;1352;-86
2021/04/21 12:21:26;;;;;;;;;;;;;;;21.54;29.47;97916.47;5067410;28;1380;-87
2021/04/21 12:24:01;;;;;;;;;;;;;;;21.72;29.62;97913.13;5052195;28;1968;-87
2021/04/21 12:26:26;;;;;;;;;;;;;;;22.23;28.54;97914.09;5068029;28;1186;-87
2021/04/21 12:28:53;;;;;;;;;;;;;;;22.38;28.38;97899.44;5070690;28;775;-88
2021/04/21 12:31:20;;;;;;;;;;;;;;;21.98;28.93;97902.69;5053394;28;1344;-87
2021/04/21 12:33:46;;;;;;;;;;;;;;;21.78;29.31;97906.47;5068180;28;1180;-88
2021/04/21 12:36:14;;;;;;;;;;;;;;;21.70;29.37;97896.56;5050893;28;1163;-86
2021/04/21 12:38:43;;;;;;;;;;;;;;;21.51;29.63;97908.88;5052000;28;1223;-87
2021/04/21 12:41:18;;;;;;;;;;;;;;;21.52;29.41;97904.78;5067547;28;1348;-88
2021/04/21 12:43:44;;;;;;;;;;;;;;;21.49;29.58;97905.69;5051818;28;1971;-87
2021/04/21 12:46:10;;;;;;;;;;;;;;;21.48;29.51;97899.22;5050844;28;1133;-87
2021/04/21 12:48:44;;;;;;;;;;;;;;;21.54;29.50;97899.47;5051557;28;1289;-86
2021/04/21 12:51:14;;;;;;;;;;;;;;;21.47;29.68;97899.69;5083689;28;1362;-87
2021/04/21 12:53:40;;;;;;;;;;;;;;;22.00;29.18;97894.50;5035519;28;1187;-88
2021/04/21 12:56:12;;;;;;;;;;;;;;;22.29;28.35;97895.25;5068195;28;638;-86
2021/04/21 12:58:40;;;;;;;;;;;;;;;22.04;28.57;97895.19;5069619;28;758;-87
2021/04/21 13:01:09;;;;;;;;;;;;;;;21.75;29.09;97893.19;5068080;28;1356;-88
2021/04/21 13:03:34;;;;;;;;;;;;;;;21.64;29.43;97901.22;5051511;28;1902;-86
2021/04/21 13:06:00;;;;;;;;;;;;;;;21.71;29.00;97895.34;5050388;28;887;-88
2021/04/21 13:08:26;;;;;;;;;;;;;;;21.72;28.88;97896.94;5068022;28;988;-87
2021/04/21 13:10:52;;;;;;;;;;;;;;;21.55;29.50;97889.72;5067574;28;1763;-87